Portada
METAR-TAF:

METAR-TAF

Aeroports :

El Salvador, El Salvador

latitud: 13-26N, longitud: 089-03W, altitud: 25 m

Observació

L'informe es va fer fa 36 minuts, a les 23:50 UTC
Vent 3 kt del Sud-Oest
Temperatura 26°C
Humitat 74%
Pressió 1010 hPa
Visibilitat 10 km o més
sense núvols per sota de 1500 mi sense presència de cumulonimbus.

METAR: MSLP 192350Z 22003KT CAVOK 26/21 Q1010 A2982

Hora: 18:26 (00:26 UTC)

Pronòstic

L'informe es va fer fa 3 hores i 1 minuts, a les 21:25 UTC
Pronòstic vàlid del 20 a les 00 UTC al 20 a les 24 UTC
Vent 3 kt amb direcció variable
Visibilitat 10 km o més
Núvols disperses a una alçada de 7000 ft
A partir de les 20 a les 0800 UTC
Vent 10 kt del Nord/Nord-Est amb ràfegues de 20 kt
Temporalment
l' 20 a les 20 UTC al 20 a les 24 UTC
Vent 6 kt del Est

TAF: MSLP 192125Z 2000/2024 VRB03KT 9999 SCT070 TX34/2018Z TN22/2012Z FM200800 03010G20KT TEMPO 2020/2024 10006KT

Observacions i pronòstics meteorològics de més de 4000 aeroports (METAR i TAF).

Les estacions disponibles són els punts grocs i vermells al mapa.

Posi el ratolí al punt desitjat per veure el nom de l'estació.

Feu clic per veure les observacions i els pronòstics meteorològics.

Per canviar el mapa: feu clic els botons verds amb una creu de color negre per apropar; al botó verd amb un guió per allunyar la imatge; o en les fletxes verdes per a mapes adjacents.


METAR-TAF: